createdAt,value
2022-12-15T00:02:19.491Z,33.66
2022-12-15T00:05:05.287Z,33.27
2022-12-15T00:07:50.194Z,33.60
2022-12-15T00:10:35.911Z,33.55
2022-12-15T00:13:20.865Z,33.06
2022-12-15T00:16:13.246Z,33.34
2022-12-15T00:19:00.930Z,33.28
2022-12-15T00:21:46.328Z,33.80
2022-12-15T00:24:31.325Z,33.61
2022-12-15T00:27:16.482Z,33.64
2022-12-15T00:30:01.503Z,33.82
2022-12-15T00:32:46.606Z,33.43
2022-12-15T00:35:31.732Z,33.56
2022-12-15T00:38:16.911Z,33.40
2022-12-15T00:40:43.568Z,33.58
2022-12-15T00:43:12.288Z,33.19
2022-12-15T00:45:57.393Z,33.15
2022-12-15T00:48:24.036Z,33.49
2022-12-15T00:50:53.471Z,33.22
2022-12-15T00:53:39.316Z,33.30
2022-12-15T00:56:24.991Z,33.37
2022-12-15T00:59:10.003Z,33.44
2022-12-15T01:01:55.144Z,33.50
2022-12-15T01:04:40.667Z,33.32
2022-12-15T01:07:25.684Z,33.16
2022-12-15T01:10:11.294Z,33.28
2022-12-15T01:12:59.121Z,33.58
2022-12-15T01:15:50.980Z,33.58
2022-12-15T01:18:44.137Z,33.35
2022-12-15T01:21:16.387Z,33.29
2022-12-15T01:23:43.057Z,33.74
2022-12-15T01:26:09.757Z,33.75
2022-12-15T01:28:36.440Z,33.48
2022-12-15T01:31:15.693Z,33.78
2022-12-15T01:33:44.976Z,33.68
2022-12-15T01:36:11.859Z,33.60
2022-12-15T01:38:38.591Z,33.68
2022-12-15T01:41:06.422Z,33.82
2022-12-15T01:43:35.973Z,33.91
2022-12-15T01:46:04.314Z,33.64
2022-12-15T01:48:35.768Z,33.80
2022-12-15T01:51:17.514Z,34.04
2022-12-15T01:53:50.233Z,33.63
2022-12-15T01:56:17.853Z,33.91
2022-12-15T01:58:45.972Z,33.88
2022-12-15T02:01:15.816Z,33.91
2022-12-15T02:03:43.813Z,34.13
2022-12-15T02:06:10.773Z,33.96
2022-12-15T02:08:38.103Z,33.75
2022-12-15T02:11:19.162Z,33.94
2022-12-15T02:13:49.752Z,33.98
2022-12-15T02:16:16.520Z,33.84
2022-12-15T02:19:03.405Z,34.31
2022-12-15T02:21:34.103Z,33.87
2022-12-15T02:24:13.121Z,34.25
2022-12-15T02:26:52.161Z,34.62
2022-12-15T02:29:37.761Z,34.66
2022-12-15T02:32:07.380Z,34.73
2022-12-15T02:34:43.247Z,34.69
2022-12-15T02:37:42.157Z,34.83
2022-12-15T02:40:10.488Z,34.79
2022-12-15T02:42:41.429Z,34.73
2022-12-15T02:45:12.291Z,35.04
2022-12-15T02:47:46.374Z,34.99
2022-12-15T02:50:31.840Z,35.10
2022-12-15T02:52:58.538Z,34.84
2022-12-15T02:55:50.179Z,35.18
2022-12-15T02:58:19.839Z,35.21
2022-12-15T03:00:58.107Z,34.93
2022-12-15T03:03:25.549Z,35.17
2022-12-15T03:05:57.477Z,35.26
2022-12-15T03:08:24.668Z,35.27
2022-12-15T03:10:53.237Z,35.22
2022-12-15T03:13:20.389Z,35.09
2022-12-15T03:15:52.941Z,35.37
2022-12-15T03:18:25.016Z,35.32
2022-12-15T03:20:51.710Z,35.62
2022-12-15T03:23:18.325Z,35.27
2022-12-15T03:25:46.329Z,35.32
2022-12-15T03:28:16.607Z,35.16
2022-12-15T03:30:43.202Z,35.21
2022-12-15T03:33:11.429Z,35.35
2022-12-15T03:35:38.095Z,35.54
2022-12-15T03:38:04.738Z,35.23
2022-12-15T03:40:31.571Z,35.62
2022-12-15T03:42:58.983Z,35.55
2022-12-15T03:45:26.895Z,35.49
2022-12-15T03:47:54.286Z,35.75
2022-12-15T03:50:22.914Z,35.78
2022-12-15T03:52:53.465Z,35.94
2022-12-15T03:55:21.092Z,35.79
2022-12-15T03:57:48.047Z,35.95
2022-12-15T04:00:15.334Z,35.71
2022-12-15T04:02:42.629Z,35.95
2022-12-15T04:05:13.834Z,35.77
2022-12-15T04:07:40.420Z,35.98
2022-12-15T04:10:07.106Z,36.28
2022-12-15T04:12:37.091Z,35.97
2022-12-15T04:15:03.827Z,35.90
2022-12-15T04:17:30.419Z,35.81
2022-12-15T04:20:12.266Z,36.19
2022-12-15T04:22:43.042Z,36.34
2022-12-15T04:25:32.238Z,36.46
2022-12-15T04:28:17.776Z,36.15
2022-12-15T04:31:13.904Z,36.51
2022-12-15T04:34:01.097Z,36.53
2022-12-15T04:36:47.029Z,36.34
2022-12-15T04:39:32.041Z,36.12
2022-12-15T04:42:19.522Z,36.07
2022-12-15T04:45:05.611Z,36.52
2022-12-15T04:47:50.828Z,36.58
2022-12-15T04:50:35.869Z,36.32
2022-12-15T04:53:32.609Z,36.38
2022-12-15T04:56:18.907Z,36.71
2022-12-15T04:59:04.528Z,36.34
2022-12-15T05:01:49.749Z,36.38
2022-12-15T05:04:35.068Z,36.69
2022-12-15T05:07:20.101Z,36.56
2022-12-15T05:10:09.550Z,36.78
2022-12-15T05:13:01.041Z,36.72
2022-12-15T05:15:53.648Z,36.73
2022-12-15T05:18:42.057Z,36.43
2022-12-15T05:21:31.369Z,36.68
2022-12-15T05:24:16.442Z,36.68
2022-12-15T05:27:01.624Z,36.87
2022-12-15T05:29:46.660Z,37.13
2022-12-15T05:32:13.384Z,37.65
2022-12-15T05:34:39.958Z,37.68
2022-12-15T05:37:07.538Z,37.67
2022-12-15T05:39:34.244Z,37.90
2022-12-15T05:42:00.903Z,38.02
2022-12-15T05:44:28.430Z,38.22
2022-12-15T05:46:55.062Z,38.07
2022-12-15T05:49:23.496Z,38.16
2022-12-15T05:51:50.421Z,38.69
2022-12-15T05:54:18.430Z,38.32
2022-12-15T05:56:45.676Z,38.46
2022-12-15T05:59:12.660Z,38.63
2022-12-15T06:01:39.911Z,38.15
2022-12-15T06:04:07.644Z,37.97
2022-12-15T06:06:34.432Z,38.15
2022-12-15T06:09:01.082Z,38.10
2022-12-15T06:11:27.722Z,38.11
2022-12-15T06:13:59.271Z,37.81
2022-12-15T06:16:28.356Z,37.90
2022-12-15T06:18:56.251Z,37.70
2022-12-15T06:21:24.400Z,37.60
2022-12-15T06:23:51.185Z,37.64
2022-12-15T06:26:22.459Z,37.58
2022-12-15T06:28:49.898Z,37.66
2022-12-15T06:31:18.186Z,37.70
2022-12-15T06:33:44.985Z,37.30
2022-12-15T06:36:13.079Z,37.49
2022-12-15T06:38:40.022Z,37.51
2022-12-15T06:41:09.906Z,37.05
2022-12-15T06:43:36.476Z,37.39
2022-12-15T06:46:03.820Z,37.24
2022-12-15T06:48:30.619Z,37.19
2022-12-15T06:50:57.473Z,36.75
2022-12-15T06:53:24.534Z,36.80
2022-12-15T06:55:51.196Z,36.77
2022-12-15T06:58:18.435Z,36.55
2022-12-15T07:00:46.788Z,36.73
2022-12-15T07:03:15.699Z,36.47
2022-12-15T07:06:06.086Z,36.86
2022-12-15T07:08:38.043Z,36.55
2022-12-15T07:11:18.575Z,36.57
2022-12-15T07:13:50.928Z,36.55
2022-12-15T07:16:18.032Z,36.33
2022-12-15T07:18:44.860Z,36.53
2022-12-15T07:21:14.310Z,37.03
2022-12-15T07:23:54.199Z,36.54
2022-12-15T07:26:21.907Z,36.32
2022-12-15T07:28:48.601Z,36.19
2022-12-15T07:31:20.181Z,36.14
2022-12-15T07:33:48.626Z,36.21
2022-12-15T07:36:15.517Z,35.90
2022-12-15T07:38:42.137Z,35.65
2022-12-15T07:41:12.779Z,35.48
2022-12-15T07:43:39.526Z,35.41
2022-12-15T07:46:06.505Z,35.49
2022-12-15T07:48:33.649Z,35.39
2022-12-15T07:51:11.029Z,34.99
2022-12-15T07:53:42.582Z,33.50
2022-12-15T07:56:12.016Z,32.33
2022-12-15T07:58:39.258Z,32.67
2022-12-15T08:01:08.100Z,32.25
2022-12-15T08:03:36.216Z,32.23
2022-12-15T08:06:05.138Z,32.55
2022-12-15T08:08:32.538Z,32.67
2022-12-15T08:11:00.123Z,32.68
2022-12-15T08:14:00.731Z,32.54
2022-12-15T08:16:14.182Z,32.39
2022-12-15T08:18:41.340Z,32.48
2022-12-15T08:21:10.984Z,32.45
2022-12-15T08:23:38.808Z,32.31
2022-12-15T08:26:08.038Z,32.66
2022-12-15T08:28:35.960Z,32.52
2022-12-15T08:31:09.006Z,32.46
2022-12-15T08:33:36.381Z,32.42
2022-12-15T08:36:05.278Z,32.38
2022-12-15T08:38:32.326Z,32.75
2022-12-15T08:41:08.584Z,32.40
2022-12-15T08:43:36.080Z,32.98
2022-12-15T08:46:03.077Z,32.96
2022-12-15T08:48:30.574Z,32.88
2022-12-15T08:51:00.505Z,33.13
2022-12-15T08:53:32.084Z,32.92
2022-12-15T08:56:07.462Z,33.16
2022-12-15T08:58:34.392Z,32.90
2022-12-15T09:01:25.980Z,32.77
2022-12-15T09:03:54.194Z,32.81
2022-12-15T09:06:40.379Z,33.05
2022-12-15T09:09:10.923Z,32.96
2022-12-15T09:11:37.913Z,32.80
2022-12-15T09:14:05.217Z,33.09
2022-12-15T09:16:32.565Z,32.70
2022-12-15T09:19:00.881Z,32.86
2022-12-15T09:21:28.907Z,32.77
2022-12-15T09:24:00.864Z,32.99
2022-12-15T09:26:28.991Z,32.92
2022-12-15T09:28:57.143Z,32.81
2022-12-15T09:31:30.846Z,32.66
2022-12-15T09:34:00.302Z,32.86
2022-12-15T09:36:27.568Z,32.77
2022-12-15T09:38:54.777Z,32.53
2022-12-15T09:41:24.048Z,32.33
2022-12-15T09:43:55.899Z,32.41
2022-12-15T09:46:35.248Z,32.37
2022-12-15T09:49:03.729Z,31.91
2022-12-15T09:51:35.539Z,31.79
2022-12-15T09:54:03.113Z,31.89
2022-12-15T09:56:40.022Z,31.88
2022-12-15T09:59:17.157Z,31.58
2022-12-15T10:01:48.278Z,31.51
2022-12-15T10:04:24.866Z,31.62
2022-12-15T10:07:05.299Z,31.26
2022-12-15T10:09:32.269Z,31.25
2022-12-15T10:12:02.559Z,31.15
2022-12-15T10:14:38.776Z,31.37
2022-12-15T10:17:17.553Z,31.44
2022-12-15T10:19:50.161Z,31.39
2022-12-15T10:22:22.021Z,31.02
2022-12-15T10:27:46.885Z,31.26
2022-12-15T10:30:16.525Z,30.88
2022-12-15T10:32:50.957Z,30.83
2022-12-15T10:35:22.339Z,31.14
2022-12-15T10:37:50.081Z,30.98
2022-12-15T10:40:19.040Z,30.60
2022-12-15T10:42:48.325Z,30.95
2022-12-15T10:45:24.831Z,30.98
2022-12-15T10:48:00.186Z,30.66
2022-12-15T10:50:27.864Z,30.67
2022-12-15T10:52:55.166Z,30.79
2022-12-15T10:55:31.693Z,30.56
2022-12-15T10:58:00.251Z,30.59
2022-12-15T11:00:29.902Z,30.99
2022-12-15T11:03:43.392Z,30.51
2022-12-15T11:06:19.779Z,30.63
2022-12-15T11:08:47.799Z,31.01
2022-12-15T11:11:27.553Z,30.64
2022-12-15T11:14:07.634Z,31.09
2022-12-15T11:16:34.581Z,30.77
2022-12-15T11:19:13.698Z,30.76
2022-12-15T11:21:45.112Z,30.85
2022-12-15T11:24:17.904Z,31.21
2022-12-15T11:26:54.746Z,31.14
2022-12-15T11:29:34.780Z,31.03
2022-12-15T11:32:06.910Z,31.10
2022-12-15T11:34:37.020Z,31.03
2022-12-15T11:37:04.207Z,30.90
2022-12-15T11:39:42.300Z,31.25
2022-12-15T11:42:15.044Z,30.85
2022-12-15T11:44:49.070Z,31.10
2022-12-15T11:47:25.789Z,31.36
2022-12-15T11:50:07.792Z,31.21
2022-12-15T11:52:45.420Z,31.02
2022-12-15T11:55:29.192Z,31.50
2022-12-15T11:58:07.313Z,31.16
2022-12-15T12:00:38.004Z,31.22
2022-12-15T12:03:13.283Z,31.17
2022-12-15T12:05:47.599Z,31.41
2022-12-15T12:08:30.476Z,31.14
2022-12-15T12:11:05.301Z,31.51
2022-12-15T12:13:41.716Z,31.49
2022-12-15T12:16:09.690Z,31.41
2022-12-15T12:18:43.149Z,31.72
2022-12-15T12:21:15.423Z,31.92
2022-12-15T12:23:42.609Z,31.79
2022-12-15T12:26:16.006Z,31.53
2022-12-15T12:28:48.889Z,31.55
2022-12-15T12:31:27.369Z,31.57
2022-12-15T12:33:56.080Z,31.97
2022-12-15T12:36:23.641Z,31.83
2022-12-15T12:38:53.019Z,32.01
2022-12-15T12:41:29.679Z,31.55
2022-12-15T12:44:00.938Z,31.79
2022-12-15T12:46:28.272Z,31.92
2022-12-15T12:48:56.603Z,31.67
2022-12-15T12:51:24.763Z,31.80
2022-12-15T12:53:51.988Z,31.57
2022-12-15T12:56:28.748Z,31.88
2022-12-15T12:58:55.823Z,31.89
2022-12-15T13:01:32.923Z,31.94
2022-12-15T13:04:09.759Z,31.49
2022-12-15T13:06:36.870Z,31.63
2022-12-15T13:09:23.660Z,31.46
2022-12-15T13:11:51.994Z,31.50
2022-12-15T13:14:25.840Z,31.03
2022-12-15T13:17:25.347Z,30.87
2022-12-15T13:22:48.770Z,30.78
2022-12-15T13:25:26.874Z,30.70
2022-12-15T13:27:58.100Z,30.68
2022-12-15T13:30:25.291Z,30.65
2022-12-15T13:32:53.716Z,30.32
2022-12-15T13:35:26.547Z,30.25
2022-12-15T13:37:54.896Z,30.34
2022-12-15T13:40:35.554Z,30.39
2022-12-15T13:43:05.740Z,30.40
2022-12-15T13:45:36.287Z,30.47
2022-12-15T13:48:13.955Z,30.54
2022-12-15T13:50:45.245Z,30.30
2022-12-15T13:53:20.860Z,30.64
2022-12-15T13:56:00.907Z,30.27
2022-12-15T13:58:29.071Z,30.41
2022-12-15T14:00:57.377Z,30.30
2022-12-15T14:03:24.906Z,30.71
2022-12-15T14:05:56.969Z,30.33
2022-12-15T14:08:27.524Z,30.30
2022-12-15T14:10:56.290Z,30.49
2022-12-15T14:13:24.787Z,30.62
2022-12-15T14:15:54.924Z,30.28
2022-12-15T14:18:23.771Z,30.47
2022-12-15T14:20:50.820Z,30.29
2022-12-15T14:23:21.642Z,30.26
2022-12-15T14:25:57.309Z,30.31
2022-12-15T14:28:25.032Z,30.52
2022-12-15T14:30:52.103Z,30.24
2022-12-15T14:33:19.585Z,30.54
2022-12-15T14:35:49.547Z,30.29
2022-12-15T14:38:26.788Z,30.48
2022-12-15T14:40:56.547Z,30.64
2022-12-15T14:43:39.064Z,30.29
2022-12-15T14:46:09.457Z,30.62
2022-12-15T14:48:41.770Z,30.78
2022-12-15T14:51:11.074Z,30.83
2022-12-15T14:53:44.661Z,30.53
2022-12-15T14:56:14.281Z,30.63
2022-12-15T14:58:41.775Z,30.97
2022-12-15T15:03:10.065Z,30.80
2022-12-15T15:03:43.922Z,31.07
2022-12-15T15:06:12.321Z,30.87
2022-12-15T15:08:46.957Z,30.92
2022-12-15T15:11:28.391Z,31.10
2022-12-15T15:14:05.415Z,31.17
2022-12-15T15:16:32.610Z,31.08
2022-12-15T15:19:01.142Z,31.01
2022-12-15T15:21:29.218Z,31.52
2022-12-15T15:23:59.711Z,31.27
2022-12-15T15:26:27.315Z,31.42
2022-12-15T15:28:54.689Z,31.00
2022-12-15T15:31:30.216Z,31.21
2022-12-15T15:34:00.158Z,31.44
2022-12-15T15:36:31.004Z,31.67
2022-12-15T15:38:59.073Z,31.42
2022-12-15T15:41:30.261Z,31.31
2022-12-15T15:44:00.412Z,31.34
2022-12-15T15:46:30.550Z,31.37
2022-12-15T15:49:01.449Z,31.26
2022-12-15T15:56:31.231Z,31.18
2022-12-15T15:58:59.808Z,31.14
2022-12-15T16:01:26.845Z,31.39
2022-12-15T16:03:58.469Z,31.12
2022-12-15T16:06:25.408Z,31.14
2022-12-15T16:08:54.023Z,31.45
2022-12-15T16:11:22.406Z,31.24
2022-12-15T16:13:49.336Z,31.55
2022-12-15T16:16:23.597Z,31.24
2022-12-15T16:18:50.609Z,31.22
2022-12-15T16:21:18.252Z,31.59
2022-12-15T16:23:46.586Z,31.41
2022-12-15T16:26:15.504Z,31.18
2022-12-15T16:28:42.526Z,31.35
2022-12-15T16:31:14.836Z,31.33
2022-12-15T16:33:42.015Z,31.38
2022-12-15T16:36:16.032Z,31.07
2022-12-15T16:38:43.288Z,31.36
2022-12-15T16:41:13.566Z,31.25
2022-12-15T16:43:44.514Z,31.38
2022-12-15T16:46:16.204Z,30.97
2022-12-15T16:48:43.926Z,31.41
2022-12-15T16:51:18.214Z,30.99
2022-12-15T16:53:45.678Z,31.35
2022-12-15T16:56:14.473Z,31.10
2022-12-15T16:58:41.406Z,31.26
2022-12-15T17:01:10.398Z,31.00
2022-12-15T17:03:37.613Z,31.01
2022-12-15T17:06:07.007Z,31.09
2022-12-15T17:08:38.916Z,30.59
2022-12-15T17:11:06.606Z,30.62
2022-12-15T17:13:42.069Z,30.48
2022-12-15T17:16:14.701Z,30.51
2022-12-15T17:18:42.854Z,30.58
2022-12-15T17:21:14.272Z,30.26
2022-12-15T17:23:42.619Z,30.11
2022-12-15T17:26:29.730Z,30.38
2022-12-15T17:28:59.038Z,30.52
2022-12-15T17:31:31.531Z,30.23
2022-12-15T17:34:02.807Z,30.48
2022-12-15T17:36:29.687Z,30.22
2022-12-15T17:38:58.572Z,30.49
2022-12-15T17:41:50.699Z,30.28
2022-12-15T17:44:32.927Z,30.55
2022-12-15T17:47:02.071Z,30.41
2022-12-15T17:49:35.197Z,30.77
2022-12-15T17:52:05.506Z,30.78
2022-12-15T17:54:32.690Z,30.51
2022-12-15T17:57:00.261Z,30.74
2022-12-15T17:59:27.307Z,30.50
2022-12-15T18:01:57.504Z,30.86
2022-12-15T18:04:24.887Z,30.50
2022-12-15T18:06:58.072Z,30.88
2022-12-15T18:09:28.306Z,30.64
2022-12-15T18:11:55.231Z,30.57
2022-12-15T18:14:23.201Z,30.61
2022-12-15T18:16:50.359Z,30.81
2022-12-15T18:19:17.250Z,30.80
2022-12-15T18:21:44.116Z,30.78
2022-12-15T18:24:12.987Z,30.50
2022-12-15T18:26:40.095Z,30.86
2022-12-15T18:29:12.007Z,30.48
2022-12-15T18:31:38.962Z,30.76
2022-12-15T18:34:11.565Z,30.62
2022-12-15T18:36:38.729Z,30.63
2022-12-15T18:39:16.034Z,30.76
2022-12-15T18:41:44.186Z,31.20
2022-12-15T18:44:19.467Z,31.02
2022-12-15T18:46:48.072Z,30.90
2022-12-15T18:49:15.429Z,30.93
2022-12-15T18:51:42.470Z,30.98
2022-12-15T18:54:16.209Z,30.92
2022-12-15T18:56:43.169Z,30.60
2022-12-15T18:59:12.294Z,31.07
2022-12-15T19:01:39.345Z,30.83
2022-12-15T19:04:06.465Z,30.65
2022-12-15T19:06:36.239Z,30.88
2022-12-15T19:09:03.531Z,30.43
2022-12-15T19:11:31.384Z,30.77
2022-12-15T19:14:00.216Z,30.91
2022-12-15T19:16:27.636Z,30.64
2022-12-15T19:19:03.548Z,30.51
2022-12-15T19:21:41.465Z,30.64
2022-12-15T19:24:10.885Z,30.96
2022-12-15T19:26:40.630Z,30.85
2022-12-15T19:29:17.145Z,30.71
2022-12-15T19:31:44.386Z,30.92
2022-12-15T19:34:11.665Z,30.98
2022-12-15T19:36:38.704Z,31.15
2022-12-15T19:39:06.545Z,31.25
2022-12-15T19:41:38.435Z,31.00
2022-12-15T19:44:13.825Z,31.19
2022-12-15T19:46:41.506Z,31.26
2022-12-15T19:49:08.519Z,31.38
2022-12-15T19:51:35.779Z,31.55
2022-12-15T19:54:03.036Z,31.14
2022-12-15T19:56:30.185Z,31.54
2022-12-15T19:58:57.279Z,31.58
2022-12-15T20:01:24.360Z,31.29
2022-12-15T20:03:52.482Z,31.13
2022-12-15T20:06:21.140Z,31.49
2022-12-15T20:08:48.883Z,31.44
2022-12-15T20:11:17.585Z,31.55
2022-12-15T20:13:45.426Z,31.19
2022-12-15T20:16:12.383Z,31.62
2022-12-15T20:18:40.903Z,31.53
2022-12-15T20:21:09.769Z,31.14
2022-12-15T20:23:41.621Z,31.09
2022-12-15T20:26:08.485Z,31.25
2022-12-15T20:28:35.267Z,31.50
2022-12-15T20:31:03.324Z,31.24
2022-12-15T20:33:30.711Z,31.11
2022-12-15T20:35:57.869Z,31.16
2022-12-15T20:38:27.418Z,31.30
2022-12-15T20:40:55.145Z,31.09
2022-12-15T20:43:22.829Z,31.37
2022-12-15T20:45:57.844Z,31.43
2022-12-15T20:48:25.359Z,31.23
2022-12-15T20:50:53.044Z,31.39
2022-12-15T20:53:22.982Z,31.32
2022-12-15T20:55:50.994Z,31.20
2022-12-15T20:58:18.385Z,31.10
2022-12-15T21:00:45.901Z,31.32
2022-12-15T21:03:17.142Z,31.52
2022-12-15T21:05:44.185Z,31.23
2022-12-15T21:08:16.554Z,31.26
2022-12-15T21:10:43.560Z,31.49
2022-12-15T21:13:19.899Z,31.43
2022-12-15T21:15:47.231Z,31.28
2022-12-15T21:18:57.182Z,31.24
2022-12-15T21:21:01.740Z,31.38
2022-12-15T21:23:30.511Z,31.20
2022-12-15T21:25:58.448Z,31.17
2022-12-15T21:28:25.784Z,31.36
2022-12-15T21:30:53.046Z,31.20
2022-12-15T21:33:21.039Z,31.11
2022-12-15T21:35:48.314Z,31.19
2022-12-15T21:38:27.044Z,31.42
2022-12-15T21:43:44.319Z,30.94
2022-12-15T21:46:13.456Z,30.93
2022-12-15T21:48:50.489Z,31.16
2022-12-15T21:51:18.665Z,31.28
2022-12-15T21:53:46.486Z,31.04
2022-12-15T21:56:15.804Z,31.42
2022-12-15T21:58:44.534Z,31.26
2022-12-15T22:01:17.954Z,31.54
2022-12-15T22:03:47.323Z,31.50
2022-12-15T22:06:17.757Z,31.64
2022-12-15T22:08:44.476Z,31.99
2022-12-15T22:11:24.796Z,31.95
2022-12-15T22:13:52.614Z,31.61
2022-12-15T22:16:22.221Z,31.93
2022-12-15T22:18:50.336Z,31.89
2022-12-15T22:21:17.640Z,31.59
2022-12-15T22:23:45.291Z,31.76
2022-12-15T22:26:31.469Z,31.91
2022-12-15T22:29:02.097Z,31.54
2022-12-15T22:31:28.950Z,31.98
2022-12-15T22:33:55.677Z,31.48
2022-12-15T22:36:22.360Z,31.79
2022-12-15T22:38:48.955Z,31.63
2022-12-15T22:41:26.178Z,31.82
2022-12-15T22:43:55.177Z,31.63
2022-12-15T22:46:24.276Z,31.88
2022-12-15T22:48:52.489Z,31.77
2022-12-15T22:51:21.504Z,31.68
2022-12-15T22:53:48.282Z,31.70
2022-12-15T22:56:25.447Z,32.20
2022-12-15T22:58:55.031Z,31.92
2022-12-15T23:01:24.551Z,32.14
2022-12-15T23:03:51.985Z,32.02
2022-12-15T23:06:18.893Z,32.10
2022-12-15T23:08:45.571Z,31.79
2022-12-15T23:11:33.271Z,32.23
2022-12-15T23:13:59.902Z,31.96
2022-12-15T23:16:26.683Z,32.18
2022-12-15T23:18:54.820Z,32.49
2022-12-15T23:21:22.435Z,32.62
2022-12-15T23:23:49.281Z,32.54
2022-12-15T23:26:17.788Z,32.64
2022-12-15T23:28:45.198Z,32.74
2022-12-15T23:31:21.712Z,32.54
2022-12-15T23:33:48.804Z,32.73
2022-12-15T23:36:15.931Z,32.94
2022-12-15T23:38:43.003Z,32.54
2022-12-15T23:41:15.857Z,32.57
2022-12-15T23:43:43.004Z,32.75
2022-12-15T23:46:10.126Z,32.66
2022-12-15T23:48:38.529Z,32.84
2022-12-15T23:51:15.911Z,32.76
2022-12-15T23:53:43.885Z,32.98
2022-12-15T23:56:14.093Z,32.75
2022-12-15T23:58:42.116Z,32.88
